Time;durP1;ratioP1;P1;durP2;ratioP2;P2;SDS_P1;SDS_P2;PMS_P1;PMS_P2;Temp;Humidity;BMP_temperature;BMP_pressure;BME280_temperature;BME280_humidity;BME280_pressure;Samples;Min_cycle;Max_cycle;Signal;HPM_P1;HPM_P2
2022/05/23 00:00:08;;;;;;;17.88;7.97;;;;;;;;;;5036978;28;20061;-69
2022/05/23 00:02:54;;;;;;;14.68;7.40;;;;;;;;;;5039202;28;20098;-68
2022/05/23 00:05:21;;;;;;;17.13;8.15;;;;;;;;;;5037705;28;20049;-68
2022/05/23 00:07:48;;;;;;;14.25;7.35;;;;;;;;;;5043853;28;20527;-68
2022/05/23 00:10:16;;;;;;;20.15;8.65;;;;;;;;;;5032344;28;20136;-70
2022/05/23 00:12:43;;;;;;;17.02;8.55;;;;;;;;;;5036287;28;20409;-67
2022/05/23 00:15:11;;;;;;;14.10;8.18;;;;;;;;;;5037586;28;20052;-70
2022/05/23 00:17:37;;;;;;;16.02;8.38;;;;;;;;;;5043467;28;20053;-69
2022/05/23 00:20:05;;;;;;;21.42;8.68;;;;;;;;;;5042048;28;20044;-70
2022/05/23 00:22:31;;;;;;;18.10;8.25;;;;;;;;;;5034545;28;20049;-68
2022/05/23 00:24:58;;;;;;;18.80;8.13;;;;;;;;;;5040032;28;20041;-70
2022/05/23 00:27:25;;;;;;;17.30;7.75;;;;;;;;;;5044405;28;20059;-68
2022/05/23 00:29:52;;;;;;;17.70;8.45;;;;;;;;;;5038645;28;20073;-68
2022/05/23 00:35:19;;;;;;;18.48;8.65;;;;;;;;;;5040374;28;20522;-69
2022/05/23 00:37:50;;;;;;;18.08;7.90;;;;;;;;;;5034427;28;20045;-68
2022/05/23 00:43:13;;;;;;;16.23;8.18;;;;;;;;;;5041889;28;20053;-67
2022/05/23 00:43:38;;;;;;;14.13;7.80;;;;;;;;;;5036509;28;20132;-67
2022/05/23 00:46:07;;;;;;;16.65;8.20;;;;;;;;;;5038647;28;20037;-73
2022/05/23 00:48:33;;;;;;;21.05;8.50;;;;;;;;;;5039145;28;20045;-69
2022/05/23 00:51:03;;;;;;;18.08;8.18;;;;;;;;;;5043477;28;20060;-67
2022/05/23 00:53:37;;;;;;;16.92;8.48;;;;;;;;;;5040788;28;20053;-67
2022/05/23 00:56:06;;;;;;;15.23;8.52;;;;;;;;;;5037176;28;20044;-66
2022/05/23 00:58:35;;;;;;;15.63;7.85;;;;;;;;;;5043914;28;20056;-68
2022/05/23 01:01:05;;;;;;;16.95;8.35;;;;;;;;;;5037520;28;20115;-67
2022/05/23 01:03:31;;;;;;;15.85;8.32;;;;;;;;;;5039338;28;20052;-69
2022/05/23 01:05:57;;;;;;;17.50;8.90;;;;;;;;;;5043427;28;20390;-68
2022/05/23 01:08:24;;;;;;;16.67;8.50;;;;;;;;;;5043385;28;20170;-67
2022/05/23 01:10:51;;;;;;;16.65;8.30;;;;;;;;;;5041086;28;20042;-69
2022/05/23 01:13:17;;;;;;;17.15;9.45;;;;;;;;;;5039404;28;20037;-67
2022/05/23 01:15:46;;;;;;;18.27;9.02;;;;;;;;;;5032845;28;20053;-69
2022/05/23 01:18:12;;;;;;;17.50;8.38;;;;;;;;;;5043653;28;20049;-67
2022/05/23 01:20:39;;;;;;;17.05;8.68;;;;;;;;;;5045197;28;20045;-67
2022/05/23 01:23:08;;;;;;;18.65;9.32;;;;;;;;;;5036195;28;20053;-67
2022/05/23 01:25:45;;;;;;;18.10;8.77;;;;;;;;;;5032175;28;20050;-66
2022/05/23 01:28:12;;;;;;;15.00;9.02;;;;;;;;;;5039803;28;20037;-68
2022/05/23 01:30:40;;;;;;;19.17;8.95;;;;;;;;;;5036792;28;20498;-68
2022/05/23 01:33:07;;;;;;;17.40;8.65;;;;;;;;;;5036170;28;20128;-67
2022/05/23 01:35:34;;;;;;;12.93;8.50;;;;;;;;;;5037786;28;20049;-67
2022/05/23 01:38:00;;;;;;;18.17;9.05;;;;;;;;;;5044504;28;20057;-68
2022/05/23 01:40:26;;;;;;;21.67;9.23;;;;;;;;;;5037431;28;20075;-66
2022/05/23 01:42:53;;;;;;;19.65;9.65;;;;;;;;;;5045613;28;20111;-68
2022/05/23 01:45:22;;;;;;;17.25;8.98;;;;;;;;;;5038993;28;20073;-68
2022/05/23 01:47:48;;;;;;;20.95;9.40;;;;;;;;;;5038344;28;20072;-67
2022/05/23 01:50:14;;;;;;;14.02;8.25;;;;;;;;;;5040253;28;20496;-68
2022/05/23 01:52:41;;;;;;;17.40;8.68;;;;;;;;;;5039250;28;20034;-68
2022/05/23 01:55:07;;;;;;;17.73;9.38;;;;;;;;;;5040210;28;20139;-69
2022/05/23 01:57:34;;;;;;;15.70;9.10;;;;;;;;;;5039350;28;20048;-68
2022/05/23 02:02:47;;;;;;;15.80;8.98;;;;;;;;;;5043662;28;20052;-67
2022/05/23 02:05:17;;;;;;;15.32;9.18;;;;;;;;;;5035456;28;20083;-67
2022/05/23 02:07:43;;;;;;;18.92;8.90;;;;;;;;;;5032446;28;20049;-67
2022/05/23 02:10:11;;;;;;;14.63;8.98;;;;;;;;;;5035812;28;20045;-67
2022/05/23 02:12:38;;;;;;;16.83;8.90;;;;;;;;;;5044477;28;20500;-66
2022/05/23 02:15:05;;;;;;;12.23;7.88;;;;;;;;;;5040304;28;20068;-69
2022/05/23 02:17:31;;;;;;;18.75;8.95;;;;;;;;;;5039517;28;20473;-68
2022/05/23 02:19:57;;;;;;;17.20;7.20;;;;;;;;;;5045521;28;20095;-69
2022/05/23 02:22:23;;;;;;;14.50;7.55;;;;;;;;;;5043163;28;20053;-69
2022/05/23 02:24:49;;;;;;;12.80;6.57;;;;;;;;;;5043754;28;20045;-68
2022/05/23 02:27:15;;;;;;;17.42;6.38;;;;;;;;;;5045481;28;20550;-68
2022/05/23 02:29:41;;;;;;;19.70;6.38;;;;;;;;;;5034660;28;20045;-66
2022/05/23 02:32:08;;;;;;;14.50;5.95;;;;;;;;;;5046383;28;20053;-67
2022/05/23 02:34:34;;;;;;;11.38;5.68;;;;;;;;;;5044433;28;20144;-68
2022/05/23 02:37:00;;;;;;;13.68;5.57;;;;;;;;;;5042061;28;20052;-67
2022/05/23 02:39:26;;;;;;;11.70;5.60;;;;;;;;;;5044511;28;20087;-68
2022/05/23 02:41:52;;;;;;;11.98;4.78;;;;;;;;;;5033784;28;20495;-64
2022/05/23 02:44:18;;;;;;;20.45;5.18;;;;;;;;;;5044553;28;20049;-64
2022/05/23 02:46:44;;;;;;;20.90;5.50;;;;;;;;;;5040611;28;20037;-66
2022/05/23 02:49:12;;;;;;;16.25;5.13;;;;;;;;;;5041703;28;20064;-67
2022/05/23 02:51:38;;;;;;;13.90;5.20;;;;;;;;;;5042780;28;20049;-66
2022/05/23 02:54:04;;;;;;;15.75;4.95;;;;;;;;;;5036071;28;20057;-66
2022/05/23 02:56:31;;;;;;;11.15;4.72;;;;;;;;;;5044152;28;20041;-65
2022/05/23 02:58:57;;;;;;;11.77;4.40;;;;;;;;;;5042447;28;20072;-66
2022/05/23 03:01:23;;;;;;;14.30;4.43;;;;;;;;;;5036986;28;20063;-66
2022/05/23 03:03:49;;;;;;;16.52;4.35;;;;;;;;;;5040111;28;20037;-68
2022/05/23 03:06:15;;;;;;;11.82;4.10;;;;;;;;;;5045876;28;20408;-65
2022/05/23 03:08:41;;;;;;;20.60;4.05;;;;;;;;;;5037919;28;20045;-67
2022/05/23 03:11:08;;;;;;;10.30;3.92;;;;;;;;;;5042053;28;20042;-68
2022/05/23 03:13:34;;;;;;;9.93;3.75;;;;;;;;;;5044232;28;20099;-65
2022/05/23 03:16:02;;;;;;;16.27;3.97;;;;;;;;;;5042546;28;20045;-67
2022/05/23 03:18:28;;;;;;;10.50;3.60;;;;;;;;;;5044138;28;20045;-65
2022/05/23 03:20:56;;;;;;;11.15;3.80;;;;;;;;;;5044446;28;20140;-67
2022/05/23 03:29:09;;;;;;;12.18;3.33;;;;;;;;;;5056757;28;20067;-66
2022/05/23 03:31:35;;;;;;;10.88;3.67;;;;;;;;;;5061171;28;20484;-67
2022/05/23 03:34:01;;;;;;;14.13;3.50;;;;;;;;;;5062850;28;20033;-67
2022/05/23 03:36:27;;;;;;;11.35;3.40;;;;;;;;;;5057488;28;20064;-67
2022/05/23 03:38:52;;;;;;;9.05;3.67;;;;;;;;;;5059621;28;20058;-66
2022/05/23 03:41:18;;;;;;;14.75;3.53;;;;;;;;;;5056646;28;20110;-67
2022/05/23 03:43:44;;;;;;;10.65;2.67;;;;;;;;;;5062275;28;20050;-67
2022/05/23 03:46:13;;;;;;;12.73;3.30;;;;;;;;;;5059686;28;20554;-66
2022/05/23 03:48:40;;;;;;;6.82;3.03;;;;;;;;;;5045325;28;20494;-67
2022/05/23 03:51:07;;;;;;;10.60;2.85;;;;;;;;;;5064340;28;20049;-67
2022/05/23 03:53:34;;;;;;;7.90;2.47;;;;;;;;;;5057165;28;20134;-66
2022/05/23 03:56:00;;;;;;;9.23;3.00;;;;;;;;;;5059696;28;20527;-65
2022/05/23 03:58:28;;;;;;;9.43;2.63;;;;;;;;;;5062907;28;20073;-67
2022/05/23 04:01:07;;;;;;;9.73;2.53;;;;;;;;;;5057467;28;20048;-67
2022/05/23 04:03:34;;;;;;;15.27;2.78;;;;;;;;;;5044393;28;20540;-68
2022/05/23 04:06:00;;;;;;;7.80;2.20;;;;;;;;;;5036176;28;20072;-67
2022/05/23 04:08:26;;;;;;;11.63;2.50;;;;;;;;;;5048764;28;20049;-66
2022/05/23 04:10:52;;;;;;;13.75;3.40;;;;;;;;;;5042329;28;20528;-65
2022/05/23 04:13:18;;;;;;;12.75;2.47;;;;;;;;;;5044198;28;20132;-67
2022/05/23 04:15:43;;;;;;;8.52;2.60;;;;;;;;;;5043855;28;20543;-64
2022/05/23 04:18:10;;;;;;;12.77;2.30;;;;;;;;;;5032930;28;20053;-65
2022/05/23 04:20:35;;;;;;;15.90;2.33;;;;;;;;;;5039880;28;20095;-64
2022/05/23 04:23:02;;;;;;;12.18;2.78;;;;;;;;;;5036081;28;20056;-65
2022/05/23 04:25:28;;;;;;;15.20;2.72;;;;;;;;;;5032930;28;20083;-63
2022/05/23 04:27:54;;;;;;;11.38;2.55;;;;;;;;;;5044723;28;20103;-65
2022/05/23 04:30:20;;;;;;;6.50;2.10;;;;;;;;;;5039754;28;20136;-64
2022/05/23 04:35:30;;;;;;;13.95;2.50;;;;;;;;;;5033956;28;20041;-67
2022/05/23 04:37:56;;;;;;;8.45;2.45;;;;;;;;;;5039068;28;20072;-66
2022/05/23 04:40:24;;;;;;;10.88;2.50;;;;;;;;;;5041247;28;20042;-64
2022/05/23 04:42:51;;;;;;;6.30;2.20;;;;;;;;;;5048220;28;20047;-65
2022/05/23 04:45:18;;;;;;;8.25;2.30;;;;;;;;;;5045209;28;20045;-66
2022/05/23 04:50:29;;;;;;;9.00;2.20;;;;;;;;;;5047041;28;20052;-63
2022/05/23 04:52:57;;;;;;;14.07;2.33;;;;;;;;;;5038436;28;20042;-63
2022/05/23 04:55:23;;;;;;;9.60;2.28;;;;;;;;;;5042485;28;20045;-73
2022/05/23 04:57:50;;;;;;;5.82;2.22;;;;;;;;;;5039898;28;20485;-65
2022/05/23 05:00:18;;;;;;;6.10;2.05;;;;;;;;;;5041515;28;20357;-64
2022/05/23 05:02:45;;;;;;;6.30;2.22;;;;;;;;;;5038431;28;20564;-68
2022/05/23 05:05:12;;;;;;;7.28;2.58;;;;;;;;;;5040042;28;20053;-69
2022/05/23 05:07:38;;;;;;;9.25;2.50;;;;;;;;;;5043072;28;20140;-65
2022/05/23 05:10:05;;;;;;;8.90;2.15;;;;;;;;;;5039147;28;20121;-65
2022/05/23 05:12:31;;;;;;;8.32;2.22;;;;;;;;;;5042226;28;20053;-65
2022/05/23 05:14:58;;;;;;;9.20;2.08;;;;;;;;;;5053622;28;20052;-66
2022/05/23 05:17:24;;;;;;;8.55;2.25;;;;;;;;;;5058655;28;20072;-64
2022/05/23 05:19:50;;;;;;;6.93;2.05;;;;;;;;;;5037141;28;20554;-66
2022/05/23 05:22:16;;;;;;;11.80;2.38;;;;;;;;;;5041627;28;20234;-66
2022/05/23 05:24:42;;;;;;;10.23;2.05;;;;;;;;;;5031720;28;20528;-66
2022/05/23 05:27:10;;;;;;;9.50;2.38;;;;;;;;;;5033274;28;20049;-65
2022/05/23 05:29:36;;;;;;;11.13;2.33;;;;;;;;;;5037181;28;20056;-68
2022/05/23 05:32:28;;;;;;;9.77;2.03;;;;;;;;;;5037156;28;20645;-67
2022/05/23 05:35:01;;;;;;;4.70;2.05;;;;;;;;;;5037623;28;20512;-66
2022/05/23 05:37:34;;;;;;;12.73;2.38;;;;;;;;;;5039373;28;20068;-66
2022/05/23 05:40:04;;;;;;;12.33;2.20;;;;;;;;;;5036431;28;20109;-65
2022/05/23 05:42:34;;;;;;;10.23;2.15;;;;;;;;;;5040496;28;20036;-66
2022/05/23 05:45:06;;;;;;;6.63;1.90;;;;;;;;;;5040786;28;20083;-64
2022/05/23 05:47:36;;;;;;;8.57;1.85;;;;;;;;;;5040832;28;20745;-63
2022/05/23 05:50:09;;;;;;;6.32;2.10;;;;;;;;;;5038232;28;20075;-65
2022/05/23 05:52:35;;;;;;;11.23;2.50;;;;;;;;;;5042946;28;20458;-66
2022/05/23 05:55:04;;;;;;;8.70;2.15;;;;;;;;;;5039902;28;20584;-66
2022/05/23 05:57:31;;;;;;;14.73;2.35;;;;;;;;;;5058588;28;20055;-65
2022/05/23 05:59:57;;;;;;;14.02;2.33;;;;;;;;;;5030962;28;20049;-66
2022/05/23 06:02:22;;;;;;;6.15;2.08;;;;;;;;;;5040292;28;20121;-65
2022/05/23 06:04:48;;;;;;;7.50;2.30;;;;;;;;;;5037480;28;20084;-65
2022/05/23 06:12:57;;;;;;;19.77;2.65;;;;;;;;;;5040535;28;20094;-65
2022/05/23 06:15:24;;;;;;;16.50;2.50;;;;;;;;;;5039581;28;20057;-65
2022/05/23 06:17:53;;;;;;;8.35;2.17;;;;;;;;;;5032249;28;20455;-67
2022/05/23 06:20:20;;;;;;;7.45;2.70;;;;;;;;;;5040855;28;20111;-65
2022/05/23 06:22:46;;;;;;;8.57;2.78;;;;;;;;;;5041645;28;20408;-65
2022/05/23 06:25:15;;;;;;;15.85;2.80;;;;;;;;;;5041489;28;20049;-67
2022/05/23 06:27:41;;;;;;;8.93;2.55;;;;;;;;;;5041200;28;20053;-69
2022/05/23 06:30:10;;;;;;;8.70;2.40;;;;;;;;;;5040915;28;20345;-64
2022/05/23 06:32:36;;;;;;;13.23;2.80;;;;;;;;;;5044301;28;20344;-64
2022/05/23 06:35:07;;;;;;;6.80;2.47;;;;;;;;;;5041608;28;20065;-64
2022/05/23 06:37:38;;;;;;;13.07;2.60;;;;;;;;;;5045282;28;20428;-65
2022/05/23 06:40:07;;;;;;;9.95;2.90;;;;;;;;;;5045359;28;20158;-63
2022/05/23 06:42:33;;;;;;;8.77;2.55;;;;;;;;;;5042465;28;20053;-63
2022/05/23 06:45:00;;;;;;;10.40;2.67;;;;;;;;;;5043151;28;20109;-64
2022/05/23 06:47:26;;;;;;;10.65;2.67;;;;;;;;;;5042299;28;20049;-64
2022/05/23 06:49:52;;;;;;;6.40;2.10;;;;;;;;;;5042602;28;20041;-65
2022/05/23 06:52:19;;;;;;;10.30;2.25;;;;;;;;;;5034307;28;20055;-67
2022/05/23 06:54:45;;;;;;;6.65;2.22;;;;;;;;;;5037004;28;20135;-65
2022/05/23 06:57:11;;;;;;;14.90;3.08;;;;;;;;;;5036661;28;20104;-68
2022/05/23 06:59:38;;;;;;;20.63;2.80;;;;;;;;;;5043166;28;20098;-64
2022/05/23 07:02:06;;;;;;;13.27;2.53;;;;;;;;;;5034302;28;20399;-64
2022/05/23 07:12:47;;;;;;;13.63;2.35;;;;;;;;;;5042957;28;20037;-65
2022/05/23 07:15:13;;;;;;;13.10;2.55;;;;;;;;;;5065096;28;20130;-65
2022/05/23 07:17:39;;;;;;;7.90;2.35;;;;;;;;;;5043117;28;20075;-66
2022/05/23 07:20:06;;;;;;;19.15;2.95;;;;;;;;;;5047195;28;20049;-65
2022/05/23 07:22:32;;;;;;;13.27;3.10;;;;;;;;;;5049741;28;20416;-63
2022/05/23 07:24:59;;;;;;;9.25;2.78;;;;;;;;;;5042126;28;20561;-65
2022/05/23 07:27:26;;;;;;;9.50;2.72;;;;;;;;;;5039552;28;20406;-65
2022/05/23 07:29:52;;;;;;;11.30;2.38;;;;;;;;;;5034481;28;20064;-66
2022/05/23 07:32:18;;;;;;;10.35;2.58;;;;;;;;;;5036933;28;20186;-65
2022/05/23 07:34:44;;;;;;;12.48;2.95;;;;;;;;;;5047139;28;20045;-65
2022/05/23 07:37:11;;;;;;;11.98;2.97;;;;;;;;;;5052745;28;20087;-66
2022/05/23 07:39:38;;;;;;;8.95;2.63;;;;;;;;;;5040053;28;20408;-65
2022/05/23 07:42:06;;;;;;;17.50;2.90;;;;;;;;;;5032963;28;20071;-64
2022/05/23 07:44:33;;;;;;;10.48;2.75;;;;;;;;;;5049496;28;20045;-66
2022/05/23 07:46:59;;;;;;;14.43;3.40;;;;;;;;;;5045769;28;20055;-65
2022/05/23 07:49:26;;;;;;;9.88;2.95;;;;;;;;;;5047732;28;20041;-65
2022/05/23 07:51:55;;;;;;;16.33;5.07;;;;;;;;;;5042935;28;20099;-65
2022/05/23 08:02:35;;;;;;;9.85;2.85;;;;;;;;;;5040243;28;20115;-66
2022/05/23 08:05:01;;;;;;;20.15;3.10;;;;;;;;;;5046201;28;20480;-63
2022/05/23 08:07:28;;;;;;;16.80;2.83;;;;;;;;;;5050627;28;20037;-65
2022/05/23 08:09:55;;;;;;;13.25;3.20;;;;;;;;;;5048217;28;20500;-65
2022/05/23 08:12:22;;;;;;;8.82;3.03;;;;;;;;;;5044797;28;20422;-64
2022/05/23 08:14:48;;;;;;;11.85;2.55;;;;;;;;;;5042700;28;20048;-64
2022/05/23 08:17:13;;;;;;;13.90;2.97;;;;;;;;;;5039074;28;20353;-63
2022/05/23 08:19:40;;;;;;;9.40;3.08;;;;;;;;;;5049589;28;20050;-64
2022/05/23 08:22:06;;;;;;;8.68;2.40;;;;;;;;;;5037920;28;20059;-66
2022/05/23 08:24:33;;;;;;;7.78;2.60;;;;;;;;;;5043706;28;20049;-66
2022/05/23 08:27:00;;;;;;;14.48;2.97;;;;;;;;;;5043057;28;20049;-66
2022/05/23 08:29:26;;;;;;;8.55;2.63;;;;;;;;;;5038418;28;20049;-63
2022/05/23 08:31:53;;;;;;;13.48;2.63;;;;;;;;;;5031827;28;20513;-63
2022/05/23 08:34:19;;;;;;;8.60;2.33;;;;;;;;;;5043493;28;20053;-65
2022/05/23 08:36:45;;;;;;;7.88;2.30;;;;;;;;;;5041517;28;20472;-66
2022/05/23 08:39:11;;;;;;;10.65;2.50;;;;;;;;;;5041956;28;20045;-70
2022/05/23 08:41:44;;;;;;;12.90;2.50;;;;;;;;;;5039400;28;20144;-70
2022/05/23 08:44:18;;;;;;;8.93;2.38;;;;;;;;;;5038808;28;20072;-66
2022/05/23 08:47:02;;;;;;;6.72;2.67;;;;;;;;;;5036665;28;20041;-64
2022/05/23 08:49:45;;;;;;;6.15;2.20;;;;;;;;;;5034744;28;20055;-65
2022/05/23 08:52:35;;;;;;;9.15;2.53;;;;;;;;;;5041194;28;20091;-63
2022/05/23 08:55:15;;;;;;;5.90;2.20;;;;;;;;;;5048417;28;20386;-63
2022/05/23 08:58:03;;;;;;;11.65;2.60;;;;;;;;;;5042972;28;20052;-62
2022/05/23 09:00:35;;;;;;;9.05;2.28;;;;;;;;;;5041593;28;20100;-64
2022/05/23 09:03:12;;;;;;;6.60;2.30;;;;;;;;;;5037819;28;20052;-63
2022/05/23 09:05:43;;;;;;;11.68;2.17;;;;;;;;;;5035509;28;20049;-62
2022/05/23 09:08:13;;;;;;;10.77;2.15;;;;;;;;;;5037868;28;20068;-64
2022/05/23 09:11:29;;;;;;;9.85;2.60;;;;;;;;;;5036424;28;21128;-63
2022/05/23 09:13:56;;;;;;;6.88;2.15;;;;;;;;;;5023140;28;20047;-64
2022/05/23 09:16:27;;;;;;;9.38;2.30;;;;;;;;;;5043184;28;20049;-61
2022/05/23 09:19:24;;;;;;;8.50;2.03;;;;;;;;;;5032710;28;20044;-65
2022/05/23 09:24:43;;;;;;;8.10;2.05;;;;;;;;;;5035636;28;20049;-62
2022/05/23 09:27:20;;;;;;;6.72;2.20;;;;;;;;;;5036112;28;20416;-65
2022/05/23 09:29:52;;;;;;;6.18;2.20;;;;;;;;;;5032112;28;20125;-65
2022/05/23 09:32:24;;;;;;;5.13;2.35;;;;;;;;;;5040419;28;20055;-66
2022/05/23 09:35:18;;;;;;;6.88;2.20;;;;;;;;;;5032529;28;20124;-63
2022/05/23 09:38:04;;;;;;;12.27;2.40;;;;;;;;;;5039948;28;20045;-63
2022/05/23 09:40:33;;;;;;;8.18;2.25;;;;;;;;;;5041346;28;20052;-64
2022/05/23 09:49:21;;;;;;;13.37;2.50;;;;;;;;;;5041175;28;21326;-64
2022/05/23 09:51:56;;;;;;;6.63;2.05;;;;;;;;;;5034251;28;20474;-63
2022/05/23 09:54:25;;;;;;;7.18;2.00;;;;;;;;;;5041302;28;20065;-65
2022/05/23 09:56:52;;;;;;;6.90;1.95;;;;;;;;;;5041919;28;20389;-66
2022/05/23 09:59:31;;;;;;;5.43;2.28;;;;;;;;;;5027068;28;20068;-66
2022/05/23 10:02:01;;;;;;;8.80;2.47;;;;;;;;;;5042859;28;20106;-62
2022/05/23 10:04:30;;;;;;;9.25;2.13;;;;;;;;;;5043421;28;20047;-65
2022/05/23 10:06:56;;;;;;;8.85;2.40;;;;;;;;;;5033989;28;20082;-65
2022/05/23 10:09:37;;;;;;;9.38;2.70;;;;;;;;;;5033286;28;20114;-65
2022/05/23 10:12:08;;;;;;;7.82;2.22;;;;;;;;;;5034713;28;20064;-66
2022/05/23 10:14:47;;;;;;;6.88;1.90;;;;;;;;;;5037497;28;20053;-65
2022/05/23 10:17:35;;;;;;;14.43;2.60;;;;;;;;;;5029279;28;20049;-62
2022/05/23 10:20:26;;;;;;;8.02;2.15;;;;;;;;;;5041575;28;20117;-65
2022/05/23 10:22:59;;;;;;;6.72;2.35;;;;;;;;;;5037036;28;20149;-65
2022/05/23 10:25:31;;;;;;;7.18;2.30;;;;;;;;;;5037562;28;20412;-63
2022/05/23 10:28:01;;;;;;;4.78;2.10;;;;;;;;;;5033308;28;20049;-65
2022/05/23 10:30:33;;;;;;;4.93;2.25;;;;;;;;;;5039875;28;20057;-64
2022/05/23 10:33:09;;;;;;;7.45;2.40;;;;;;;;;;5045002;28;20491;-63
2022/05/23 10:35:44;;;;;;;5.50;1.90;;;;;;;;;;5031766;28;20401;-66
2022/05/23 10:44:43;;;;;;;8.35;2.03;;;;;;;;;;5039309;28;20140;-62
2022/05/23 10:47:12;;;;;;;6.22;2.50;;;;;;;;;;5033685;28;20067;-65
2022/05/23 10:49:49;;;;;;;6.22;1.95;;;;;;;;;;5038620;28;20124;-66
2022/05/23 10:52:37;;;;;;;5.80;1.90;;;;;;;;;;5048351;28;20056;-66
2022/05/23 10:55:32;;;;;;;12.60;2.45;;;;;;;;;;5034905;28;20053;-67
2022/05/23 10:58:00;;;;;;;9.93;2.20;;;;;;;;;;5047491;28;20041;-67
2022/05/23 11:00:36;;;;;;;13.18;2.33;;;;;;;;;;5041201;28;20048;-65
2022/05/23 11:03:08;;;;;;;5.97;2.50;;;;;;;;;;5043696;28;20469;-65
2022/05/23 11:06:07;;;;;;;10.40;1.75;;;;;;;;;;5037308;28;20117;-64
2022/05/23 11:08:52;;;;;;;6.10;1.77;;;;;;;;;;5040091;28;20565;-63
2022/05/23 11:11:43;;;;;;;6.78;1.95;;;;;;;;;;5043176;28;20227;-63
2022/05/23 11:14:36;;;;;;;4.90;1.92;;;;;;;;;;5047037;28;20049;-67
2022/05/23 11:17:09;;;;;;;9.63;1.70;;;;;;;;;;5036521;28;20771;-64
2022/05/23 11:20:12;;;;;;;3.10;1.60;;;;;;;;;;5050160;28;20075;-64
2022/05/23 11:22:45;;;;;;;8.48;1.98;;;;;;;;;;5050750;28;20049;-65
2022/05/23 11:25:20;;;;;;;;;;;;;;;;;;5042290;28;20047;-62
2022/05/23 11:33:42;;;;;;;6.13;2.58;;;;;;;;;;5041066;28;20416;-65
2022/05/23 11:36:09;;;;;;;14.05;2.20;;;;;;;;;;5043789;28;20120;-64
2022/05/23 11:38:47;;;;;;;9.30;1.85;;;;;;;;;;5033249;28;20045;-65
2022/05/23 11:41:39;;;;;;;8.60;1.95;;;;;;;;;;5040217;28;20063;-66
2022/05/23 11:44:42;;;;;;;9.68;2.20;;;;;;;;;;5037155;28;20274;-66
2022/05/23 11:47:12;;;;;;;6.47;1.80;;;;;;;;;;5043487;28;20087;-65
2022/05/23 11:50:07;;;;;;;5.05;1.98;;;;;;;;;;5044800;28;20749;-66
2022/05/23 11:53:11;;;;;;;5.22;1.80;;;;;;;;;;5039226;28;20051;-65
2022/05/23 11:55:55;;;;;;;4.82;1.98;;;;;;;;;;5045724;28;20057;-64
2022/05/23 11:58:25;;;;;;;5.43;1.85;;;;;;;;;;5039087;28;20056;-61
2022/05/23 12:01:14;;;;;;;3.85;1.65;;;;;;;;;;5042877;28;20052;-63
2022/05/23 12:03:55;;;;;;;3.63;1.48;;;;;;;;;;5037353;28;20046;-63
2022/05/23 12:06:24;;;;;;;9.30;2.08;;;;;;;;;;5036488;28;20202;-62
2022/05/23 12:08:59;;;;;;;6.78;2.00;;;;;;;;;;5034411;28;20423;-66
2022/05/23 12:11:37;;;;;;;5.18;1.90;;;;;;;;;;5043164;28;20167;-63
2022/05/23 12:14:12;;;;;;;5.15;1.75;;;;;;;;;;5046219;28;20056;-61
2022/05/23 12:17:05;;;;;;;7.95;1.90;;;;;;;;;;5045594;28;20040;-62
2022/05/23 12:19:40;;;;;;;10.90;2.30;;;;;;;;;;5044995;28;20045;-65
2022/05/23 12:22:29;;;;;;;7.95;2.03;;;;;;;;;;5040899;28;20051;-64
2022/05/23 12:25:07;;;;;;;4.47;2.10;;;;;;;;;;5038720;28;20045;-64
2022/05/23 12:27:39;;;;;;;4.55;2.00;;;;;;;;;;5038348;28;20073;-62
2022/05/23 12:30:17;;;;;;;7.53;1.80;;;;;;;;;;5030813;28;20103;-65
2022/05/23 12:32:58;;;;;;;4.25;2.25;;;;;;;;;;5043301;28;20037;-63
2022/05/23 12:35:33;;;;;;;7.55;2.20;;;;;;;;;;5044785;28;20048;-65
2022/05/23 12:38:23;;;;;;;4.50;2.38;;;;;;;;;;5043815;28;20053;-64
2022/05/23 12:41:11;;;;;;;5.60;2.15;;;;;;;;;;5041687;28;20105;-62
2022/05/23 12:43:42;;;;;;;4.47;2.10;;;;;;;;;;5033807;28;20060;-66
2022/05/23 12:46:20;;;;;;;9.15;2.22;;;;;;;;;;5046141;28;20079;-64
2022/05/23 12:48:52;;;;;;;6.25;1.60;;;;;;;;;;5044733;28;20558;-62
2022/05/23 12:51:32;;;;;;;8.65;2.22;;;;;;;;;;5043657;28;20053;-63
2022/05/23 12:54:25;;;;;;;8.02;1.80;;;;;;;;;;5033149;28;20049;-65
2022/05/23 12:57:09;;;;;;;9.70;2.10;;;;;;;;;;5032431;28;20056;-64
2022/05/23 12:59:52;;;;;;;7.43;2.42;;;;;;;;;;5037355;28;20060;-67
2022/05/23 13:02:22;;;;;;;10.70;2.50;;;;;;;;;;5044409;28;20090;-63
2022/05/23 13:05:01;;;;;;;9.52;2.25;;;;;;;;;;5043102;28;20161;-64
2022/05/23 13:07:39;;;;;;;5.88;2.20;;;;;;;;;;5046635;28;20045;-65
2022/05/23 13:10:21;;;;;;;9.13;2.30;;;;;;;;;;5041329;28;20065;-65
2022/05/23 13:13:08;;;;;;;9.57;2.30;;;;;;;;;;5045219;28;20128;-64
2022/05/23 13:15:35;;;;;;;12.25;2.28;;;;;;;;;;5034899;28;20073;-65
2022/05/23 13:23:36;;;;;;;6.78;2.35;;;;;;;;;;5039463;28;20091;-66
2022/05/23 13:26:10;;;;;;;8.45;2.25;;;;;;;;;;5041995;28;20045;-63
2022/05/23 13:28:44;;;;;;;6.35;2.20;;;;;;;;;;5043227;28;20057;-64
2022/05/23 13:31:35;;;;;;;14.13;2.75;;;;;;;;;;5038867;28;20405;-66
2022/05/23 13:34:03;;;;;;;9.95;2.30;;;;;;;;;;5033147;28;20072;-65
2022/05/23 13:36:48;;;;;;;5.95;3.03;;;;;;;;;;5043543;28;20040;-63
2022/05/23 13:39:17;;;;;;;15.15;2.67;;;;;;;;;;5041055;28;20120;-66
2022/05/23 13:41:44;;;;;;;9.88;2.28;;;;;;;;;;5045736;28;20040;-65
2022/05/23 13:44:23;;;;;;;6.97;2.42;;;;;;;;;;5046459;28;20048;-67
2022/05/23 13:46:59;;;;;;;16.08;2.90;;;;;;;;;;5035371;28;20041;-64
2022/05/23 13:49:39;;;;;;;13.18;2.60;;;;;;;;;;5047639;28;20068;-65
2022/05/23 13:52:11;;;;;;;8.75;2.75;;;;;;;;;;5044269;28;20056;-67
2022/05/23 13:54:48;;;;;;;20.73;2.80;;;;;;;;;;5035872;28;20144;-65
2022/05/23 13:57:19;;;;;;;12.57;2.33;;;;;;;;;;5033731;28;20049;-66
2022/05/23 13:59:54;;;;;;;12.25;2.65;;;;;;;;;;5039580;28;20048;-68
2022/05/23 14:02:26;;;;;;;11.68;2.83;;;;;;;;;;5035113;28;20075;-64
2022/05/23 14:04:53;;;;;;;12.75;2.65;;;;;;;;;;5041597;28;20043;-64
2022/05/23 14:07:23;;;;;;;11.00;2.45;;;;;;;;;;5038999;28;20046;-67
2022/05/23 14:09:52;;;;;;;9.73;2.25;;;;;;;;;;5042279;28;20061;-65
2022/05/23 14:12:28;;;;;;;10.20;2.35;;;;;;;;;;5038940;28;20392;-64
2022/05/23 14:15:01;;;;;;;5.80;2.45;;;;;;;;;;5045058;28;20436;-68
2022/05/23 14:17:28;;;;;;;11.63;2.22;;;;;;;;;;5052220;28;20118;-68
2022/05/23 14:20:12;;;;;;;13.35;2.50;;;;;;;;;;5049664;28;20045;-67
2022/05/23 14:22:38;;;;;;;12.80;2.78;;;;;;;;;;5036189;28;20063;-67
2022/05/23 14:25:19;;;;;;;11.70;2.72;;;;;;;;;;5037980;28;20048;-66
2022/05/23 14:27:49;;;;;;;7.47;2.20;;;;;;;;;;5039586;28;20053;-65
2022/05/23 14:30:19;;;;;;;29.95;2.97;;;;;;;;;;5044952;28;20044;-65
2022/05/23 14:32:59;;;;;;;22.67;3.17;;;;;;;;;;5034994;28;20997;-67
2022/05/23 14:35:33;;;;;;;13.35;2.90;;;;;;;;;;5034436;28;20987;-64
2022/05/23 14:37:59;;;;;;;;;;;;;;;;;;5040983;28;20041;-65
2022/05/23 14:40:37;;;;;;;23.75;3.40;;;;;;;;;;5046682;28;20335;-67
2022/05/23 14:43:08;;;;;;;15.85;2.75;;;;;;;;;;5039272;28;20126;-64
2022/05/23 14:45:35;;;;;;;22.65;3.10;;;;;;;;;;5032986;28;20130;-65
2022/05/23 14:48:07;;;;;;;21.90;3.08;;;;;;;;;;5041163;28;20154;-64
2022/05/23 14:50:44;;;;;;;14.25;3.22;;;;;;;;;;5042693;28;20495;-62
2022/05/23 14:56:15;;;;;;;22.83;3.25;;;;;;;;;;5039032;28;20508;-64
2022/05/23 15:01:26;;;;;;;18.23;2.70;;;;;;;;;;5028228;28;20558;-66
2022/05/23 15:03:54;;;;;;;12.23;3.22;;;;;;;;;;5028388;28;20057;-64
2022/05/23 15:06:21;;;;;;;13.15;2.95;;;;;;;;;;5035534;28;20386;-64
2022/05/23 15:08:47;;;;;;;11.52;2.88;;;;;;;;;;5027876;28;20132;-63
2022/05/23 15:11:18;;;;;;;11.75;2.92;;;;;;;;;;5033632;28;20088;-66
2022/05/23 15:13:44;;;;;;;17.25;3.22;;;;;;;;;;5045216;28;20340;-63
2022/05/23 15:16:17;;;;;;;14.20;2.60;;;;;;;;;;5029906;28;20060;-66
2022/05/23 15:18:43;;;;;;;12.27;3.00;;;;;;;;;;5041171;28;20045;-68
2022/05/23 15:21:10;;;;;;;10.63;2.92;;;;;;;;;;5041565;28;20765;-66
2022/05/23 15:23:38;;;;;;;20.13;3.38;;;;;;;;;;5029649;28;20049;-65
2022/05/23 15:26:05;;;;;;;19.13;3.35;;;;;;;;;;5029597;28;20053;-66
2022/05/23 15:28:32;;;;;;;19.83;4.15;;;;;;;;;;5034595;28;20072;-68
2022/05/23 15:30:58;;;;;;;14.55;3.05;;;;;;;;;;5046533;28;20065;-65
2022/05/23 15:33:24;;;;;;;19.80;3.33;;;;;;;;;;5042975;28;20138;-66
2022/05/23 15:35:50;;;;;;;16.38;2.90;;;;;;;;;;5041856;28;20045;-65
2022/05/23 15:38:16;;;;;;;14.50;3.00;;;;;;;;;;5045396;28;20079;-65
2022/05/23 15:40:44;;;;;;;11.88;2.80;;;;;;;;;;5036172;28;20044;-67
2022/05/23 15:43:11;;;;;;;14.50;2.78;;;;;;;;;;5040683;28;20626;-64
2022/05/23 15:45:44;;;;;;;12.70;2.58;;;;;;;;;;5044778;28;20122;-65
2022/05/23 15:48:10;;;;;;;12.73;2.75;;;;;;;;;;5046436;28;20053;-67
2022/05/23 15:50:38;;;;;;;12.85;2.95;;;;;;;;;;5039522;28;20044;-64
2022/05/23 15:53:06;;;;;;;14.00;2.60;;;;;;;;;;5047222;28;20049;-66
2022/05/23 15:55:33;;;;;;;14.68;3.05;;;;;;;;;;5046063;28;20063;-66
2022/05/23 15:57:59;;;;;;;12.80;2.95;;;;;;;;;;5047240;28;20076;-65
2022/05/23 16:00:27;;;;;;;7.50;2.38;;;;;;;;;;5041532;28;20079;-66
2022/05/23 16:02:55;;;;;;;10.48;2.88;;;;;;;;;;5035252;28;20346;-66
2022/05/23 16:05:23;;;;;;;7.63;2.33;;;;;;;;;;5037964;28;20297;-66
2022/05/23 16:07:50;;;;;;;10.35;2.55;;;;;;;;;;5046882;28;20051;-65
2022/05/23 16:10:16;;;;;;;17.00;2.65;;;;;;;;;;5033892;28;20128;-65